createdAt,value
2022-11-22T00:00:54.814Z,87.71
2022-11-22T00:03:52.294Z,87.75
2022-11-22T00:06:49.750Z,87.83
2022-11-22T00:09:47.234Z,88.08
2022-11-22T00:12:44.698Z,88.09
2022-11-22T00:15:42.175Z,88.11
2022-11-22T00:18:39.628Z,88.30
2022-11-22T00:21:37.111Z,88.38
2022-11-22T00:24:34.572Z,88.44
2022-11-22T00:27:32.026Z,88.40
2022-11-22T00:30:29.483Z,88.48
2022-11-22T00:33:26.976Z,88.54
2022-11-22T00:36:24.415Z,88.58
2022-11-22T00:39:21.882Z,88.52
2022-11-22T00:42:19.334Z,88.44
2022-11-22T00:45:16.802Z,88.48
2022-11-22T00:48:14.267Z,88.62
2022-11-22T00:51:12.397Z,88.82
2022-11-22T00:54:09.859Z,88.77
2022-11-22T00:57:07.319Z,88.87
2022-11-22T01:00:05.326Z,88.99
2022-11-22T01:03:02.775Z,88.78
2022-11-22T01:06:00.270Z,88.76
2022-11-22T01:08:57.736Z,87.84
2022-11-22T01:11:55.187Z,87.28
2022-11-22T01:14:52.640Z,87.18
2022-11-22T01:17:50.112Z,87.11
2022-11-22T01:20:47.573Z,87.21
2022-11-22T01:23:45.010Z,87.27
2022-11-22T01:26:42.730Z,87.49
2022-11-22T01:29:40.190Z,87.66
2022-11-22T01:32:37.640Z,87.54
2022-11-22T01:35:35.129Z,87.78
2022-11-22T01:38:32.593Z,87.98
2022-11-22T01:41:30.047Z,87.53
2022-11-22T01:44:27.503Z,87.77
2022-11-22T01:47:24.973Z,88.09
2022-11-22T01:50:22.425Z,88.08
2022-11-22T01:53:19.882Z,87.71
2022-11-22T01:56:17.350Z,87.26
2022-11-22T01:59:14.811Z,87.78
2022-11-22T02:02:12.288Z,88.16
2022-11-22T02:05:09.745Z,88.33
2022-11-22T02:08:07.209Z,88.41
2022-11-22T02:11:04.714Z,88.77
2022-11-22T02:14:02.163Z,88.72
2022-11-22T02:16:59.625Z,88.56
2022-11-22T02:19:57.091Z,88.90
2022-11-22T02:22:54.537Z,88.75
2022-11-22T02:25:51.984Z,89.01
2022-11-22T02:28:49.453Z,88.62
2022-11-22T02:31:46.911Z,88.36
2022-11-22T02:34:44.352Z,88.24
2022-11-22T02:37:41.844Z,88.39
2022-11-22T02:40:39.317Z,88.60
2022-11-22T02:43:36.779Z,88.57
2022-11-22T02:46:34.220Z,88.69
2022-11-22T02:49:31.942Z,88.27
2022-11-22T02:52:29.765Z,87.64
2022-11-22T02:55:27.229Z,88.07
2022-11-22T02:58:24.672Z,88.38
2022-11-22T03:01:22.196Z,88.01
2022-11-22T03:04:25.738Z,88.12
2022-11-22T03:07:23.240Z,87.97
2022-11-22T03:10:20.769Z,88.15
2022-11-22T03:13:18.249Z,88.45
2022-11-22T03:16:15.713Z,88.47
2022-11-22T03:19:13.178Z,88.41
2022-11-22T03:22:11.668Z,88.53
2022-11-22T03:25:09.373Z,87.99
2022-11-22T03:28:06.933Z,88.23
2022-11-22T03:31:04.390Z,88.30
2022-11-22T03:34:01.863Z,88.45
2022-11-22T03:36:59.328Z,88.56
2022-11-22T03:39:56.788Z,88.52
2022-11-22T03:42:54.278Z,88.56
2022-11-22T03:45:51.763Z,88.46
2022-11-22T03:48:49.238Z,88.35
2022-11-22T03:51:46.704Z,88.54
2022-11-22T03:54:44.139Z,88.67
2022-11-22T03:57:41.585Z,88.52
2022-11-22T04:00:39.012Z,88.61
2022-11-22T04:03:36.452Z,88.62
2022-11-22T04:06:33.934Z,88.61
2022-11-22T04:09:31.906Z,88.50
2022-11-22T04:12:29.602Z,88.40
2022-11-22T04:15:27.038Z,88.50
2022-11-22T04:18:24.473Z,88.47
2022-11-22T04:21:37.471Z,88.47
2022-11-22T04:24:52.616Z,88.53
2022-11-22T04:27:50.061Z,88.49
2022-11-22T04:31:05.541Z,88.47
2022-11-22T04:34:02.978Z,88.50
2022-11-22T04:37:00.455Z,88.40
2022-11-22T04:39:57.909Z,88.37
2022-11-22T04:43:13.056Z,88.31
2022-11-22T04:46:10.528Z,88.24
2022-11-22T04:49:07.956Z,88.13
2022-11-22T04:52:23.269Z,88.06
2022-11-22T04:55:20.734Z,87.81
2022-11-22T04:58:18.209Z,87.86
2022-11-22T05:01:15.734Z,87.87
2022-11-22T05:04:13.279Z,87.80
2022-11-22T05:07:10.811Z,87.82
2022-11-22T05:10:08.264Z,87.89
2022-11-22T05:13:05.730Z,87.87
2022-11-22T05:16:03.235Z,87.72
2022-11-22T05:19:00.758Z,87.77
2022-11-22T05:21:58.164Z,87.63
2022-11-22T05:24:55.612Z,87.68
2022-11-22T05:27:53.081Z,87.68
2022-11-22T05:30:50.574Z,87.62
2022-11-22T05:33:48.045Z,87.71
2022-11-22T05:36:45.523Z,87.67
2022-11-22T05:39:42.985Z,87.55
2022-11-22T05:42:40.441Z,87.72
2022-11-22T05:45:37.890Z,87.85
2022-11-22T05:48:35.391Z,87.86
2022-11-22T05:51:34.815Z,87.97
2022-11-22T05:54:32.580Z,88.04
2022-11-22T05:57:30.045Z,88.00
2022-11-22T06:00:27.507Z,87.90
2022-11-22T06:03:24.985Z,87.92
2022-11-22T06:06:22.440Z,88.04
2022-11-22T06:09:19.891Z,87.99
2022-11-22T06:12:17.352Z,87.95
2022-11-22T06:15:14.795Z,87.97
2022-11-22T06:18:12.254Z,87.88
2022-11-22T06:21:09.693Z,87.85
2022-11-22T06:24:07.164Z,87.77
2022-11-22T06:27:04.644Z,87.69
2022-11-22T06:30:02.092Z,87.62
2022-11-22T06:32:59.846Z,87.48
2022-11-22T06:35:57.375Z,87.41
2022-11-22T06:38:54.868Z,87.41
2022-11-22T06:41:52.338Z,87.36
2022-11-22T06:44:49.801Z,87.32
2022-11-22T06:47:47.264Z,87.20
2022-11-22T06:50:44.714Z,87.14
2022-11-22T06:53:49.666Z,87.08
2022-11-22T06:56:47.508Z,87.09
2022-11-22T06:59:45.001Z,87.05
2022-11-22T07:02:42.485Z,87.12
2022-11-22T07:05:39.954Z,87.16
2022-11-22T07:08:37.429Z,87.16
2022-11-22T07:11:34.878Z,87.15
2022-11-22T07:14:32.385Z,87.16
2022-11-22T07:17:29.851Z,87.13
2022-11-22T07:20:27.311Z,87.16
2022-11-22T07:23:24.780Z,87.05
2022-11-22T07:26:22.228Z,87.03
2022-11-22T07:29:19.700Z,86.98
2022-11-22T07:32:17.161Z,86.92
2022-11-22T07:35:14.628Z,86.99
2022-11-22T07:38:12.073Z,87.03
2022-11-22T07:41:09.567Z,87.01
2022-11-22T07:44:06.998Z,87.02
2022-11-22T07:47:04.448Z,87.06
2022-11-22T07:50:01.915Z,87.08
2022-11-22T07:52:59.663Z,87.19
2022-11-22T07:55:57.865Z,87.14
2022-11-22T07:58:55.338Z,87.10
2022-11-22T08:01:52.839Z,86.99
2022-11-22T08:04:50.366Z,86.86
2022-11-22T08:07:48.703Z,86.97
2022-11-22T08:10:46.622Z,87.12
2022-11-22T08:13:44.700Z,87.14
2022-11-22T08:16:42.222Z,86.96
2022-11-22T08:19:39.875Z,86.93
2022-11-22T08:22:37.327Z,86.94
2022-11-22T08:25:34.783Z,86.96
2022-11-22T08:28:32.216Z,86.72
2022-11-22T08:31:29.663Z,86.64
2022-11-22T08:34:27.126Z,86.78
2022-11-22T08:37:24.570Z,86.87
2022-11-22T08:40:22.034Z,87.03
2022-11-22T08:43:20.315Z,87.03
2022-11-22T08:46:17.785Z,87.02
2022-11-22T08:49:15.282Z,86.87
2022-11-22T08:52:12.757Z,86.86
2022-11-22T08:55:10.236Z,86.78
2022-11-22T08:58:07.699Z,86.80
2022-11-22T09:01:05.199Z,86.88
2022-11-22T09:04:02.702Z,86.71
2022-11-22T09:10:18.391Z,86.67
2022-11-22T09:13:15.865Z,86.67
2022-11-22T09:16:13.331Z,86.58
2022-11-22T09:19:11.012Z,86.56
2022-11-22T09:22:08.509Z,86.40
2022-11-22T09:25:06.461Z,86.45
2022-11-22T09:28:03.958Z,86.42
2022-11-22T09:31:01.805Z,86.29
2022-11-22T09:33:59.281Z,86.26
2022-11-22T09:36:56.742Z,86.28
2022-11-22T09:39:54.218Z,86.31
2022-11-22T09:42:51.667Z,86.37
2022-11-22T09:45:49.125Z,86.38
2022-11-22T09:48:46.609Z,86.39
2022-11-22T09:51:44.058Z,86.43
2022-11-22T09:54:41.562Z,86.37
2022-11-22T09:57:39.079Z,86.38
2022-11-22T10:00:36.582Z,86.30
2022-11-22T10:03:34.107Z,86.27
2022-11-22T10:06:31.544Z,86.31
2022-11-22T10:09:29.612Z,86.27
2022-11-22T10:12:27.372Z,86.25
2022-11-22T10:15:24.851Z,86.21
2022-11-22T10:18:22.292Z,86.14
2022-11-22T10:21:19.804Z,86.13
2022-11-22T10:24:17.378Z,86.17
2022-11-22T10:27:15.202Z,86.06
2022-11-22T10:30:13.495Z,86.14
2022-11-22T10:33:10.945Z,86.01
2022-11-22T10:36:08.436Z,85.99
2022-11-22T10:39:06.270Z,85.98
2022-11-22T10:42:03.718Z,85.96
2022-11-22T10:45:01.200Z,85.92
2022-11-22T10:47:58.670Z,85.93
2022-11-22T10:50:56.153Z,86.01
2022-11-22T10:53:54.753Z,86.02
2022-11-22T10:56:55.226Z,85.92
2022-11-22T10:59:52.684Z,85.91
2022-11-22T11:02:50.195Z,85.83
2022-11-22T11:06:21.126Z,85.75
2022-11-22T11:12:22.581Z,85.82
2022-11-22T11:15:20.057Z,85.81
2022-11-22T11:18:17.605Z,85.70
2022-11-22T11:21:15.096Z,85.66
2022-11-22T11:24:12.555Z,85.67
2022-11-22T11:27:10.022Z,85.66
2022-11-22T11:30:07.503Z,85.54
2022-11-22T11:33:05.014Z,85.44
2022-11-22T11:36:02.728Z,85.38
2022-11-22T11:39:00.209Z,85.38
2022-11-22T11:41:57.675Z,85.39
2022-11-22T11:44:55.243Z,85.27
2022-11-22T11:47:52.714Z,85.18
2022-11-22T11:50:50.168Z,85.13
2022-11-22T11:53:47.629Z,85.08
2022-11-22T11:56:45.684Z,85.07
2022-11-22T11:59:43.147Z,85.11
2022-11-22T12:02:40.775Z,84.93
2022-11-22T12:05:38.466Z,84.90
2022-11-22T12:08:36.030Z,84.78
2022-11-22T12:11:33.467Z,84.71
2022-11-22T12:14:55.530Z,84.58
2022-11-22T12:17:48.400Z,84.44
2022-11-22T12:20:45.881Z,84.31
2022-11-22T12:23:46.641Z,84.16
2022-11-22T12:26:48.203Z,84.09
2022-11-22T12:29:45.699Z,84.00
2022-11-22T12:32:43.177Z,83.91
2022-11-22T12:35:40.650Z,83.86
2022-11-22T12:38:38.116Z,83.54
2022-11-22T12:41:35.611Z,83.42
2022-11-22T12:44:33.385Z,83.34
2022-11-22T12:47:31.086Z,83.28
2022-11-22T12:50:28.556Z,83.25
2022-11-22T12:53:26.136Z,82.86
2022-11-22T12:56:26.232Z,82.77
2022-11-22T12:59:27.455Z,82.77
2022-11-22T13:02:25.301Z,82.67
2022-11-22T13:05:22.786Z,82.47
2022-11-22T13:08:20.228Z,82.46
2022-11-22T13:11:17.729Z,82.38
2022-11-22T13:14:20.608Z,82.34
2022-11-22T13:17:18.592Z,82.44
2022-11-22T13:20:16.186Z,82.41
2022-11-22T13:23:13.697Z,82.45
2022-11-22T13:26:14.860Z,82.38
2022-11-22T13:29:12.688Z,82.63
2022-11-22T13:32:10.205Z,82.69
2022-11-22T13:35:07.790Z,82.85
2022-11-22T13:38:05.259Z,83.06
2022-11-22T13:41:02.722Z,82.91
2022-11-22T13:44:00.373Z,82.86
2022-11-22T13:46:57.842Z,82.79
2022-11-22T13:49:55.627Z,82.78
2022-11-22T13:52:53.073Z,82.90
2022-11-22T13:55:50.534Z,82.85
2022-11-22T13:58:51.037Z,82.90
2022-11-22T14:01:49.030Z,82.76
2022-11-22T14:04:46.471Z,82.72
2022-11-22T14:07:43.968Z,82.64
2022-11-22T14:10:41.492Z,82.72
2022-11-22T14:13:39.198Z,82.68
2022-11-22T14:16:36.755Z,82.59
2022-11-22T14:19:34.227Z,82.51
2022-11-22T14:22:31.700Z,82.45
2022-11-22T14:25:29.249Z,82.42
2022-11-22T14:28:26.698Z,82.45
2022-11-22T14:31:24.161Z,82.38
2022-11-22T14:34:21.621Z,82.30
2022-11-22T14:37:19.093Z,82.30
2022-11-22T14:40:16.590Z,82.30
2022-11-22T14:43:14.075Z,82.24
2022-11-22T14:46:30.377Z,82.21
2022-11-22T14:49:29.361Z,82.22
2022-11-22T14:52:27.139Z,82.29
2022-11-22T14:55:24.604Z,82.35
2022-11-22T14:58:22.075Z,82.34
2022-11-22T15:01:19.517Z,82.29
2022-11-22T15:09:20.089Z,82.31
2022-11-22T15:09:22.950Z,82.33
2022-11-22T15:10:52.141Z,82.32
2022-11-22T15:13:49.642Z,82.26
2022-11-22T15:59:36.252Z,82.38
2022-11-22T16:02:33.720Z,82.33
2022-11-22T16:06:07.516Z,82.23
2022-11-22T16:08:49.284Z,82.20
2022-11-22T16:11:48.761Z,82.23
2022-11-22T16:14:46.272Z,82.17
2022-11-22T16:17:43.951Z,82.21
2022-11-22T16:20:41.845Z,82.10
2022-11-22T16:23:39.277Z,82.09
2022-11-22T16:26:40.105Z,82.11
2022-11-22T16:29:39.796Z,82.08
2022-11-22T16:32:37.886Z,82.05
2022-11-22T16:35:35.959Z,82.06
2022-11-22T16:38:33.515Z,82.04
2022-11-22T16:41:31.486Z,82.06
2022-11-22T16:44:29.454Z,82.07
2022-11-22T16:47:27.119Z,82.07
2022-11-22T16:50:25.161Z,82.03
2022-11-22T16:53:23.285Z,82.01
2022-11-22T16:56:22.360Z,81.97
2022-11-22T16:59:21.164Z,82.01
2022-11-22T17:02:20.483Z,81.98
2022-11-22T17:05:18.443Z,81.93
2022-11-22T17:08:17.022Z,81.86
2022-11-22T17:11:16.609Z,81.73
2022-11-22T17:14:15.141Z,81.71
2022-11-22T17:17:12.743Z,81.72
2022-11-22T17:20:12.185Z,81.68
2022-11-22T17:23:16.831Z,81.62
2022-11-22T17:26:16.115Z,81.64
2022-11-22T17:29:42.816Z,81.62
2022-11-22T17:32:34.652Z,81.69
2022-11-22T17:35:36.938Z,81.68
2022-11-22T17:38:36.375Z,81.72
2022-11-22T17:41:34.967Z,81.68
2022-11-22T17:44:33.331Z,81.57
2022-11-22T17:47:33.117Z,81.46
2022-11-22T17:50:31.648Z,81.46
2022-11-22T17:53:30.931Z,81.42
2022-11-22T17:56:30.700Z,81.46
2022-11-22T17:59:28.756Z,81.46
2022-11-22T18:02:27.713Z,81.41
2022-11-22T18:05:26.403Z,81.43
2022-11-22T18:08:28.776Z,81.42
2022-11-22T18:11:27.947Z,81.27
2022-11-22T18:14:28.251Z,81.20
2022-11-22T18:17:27.245Z,81.26
2022-11-22T18:20:25.229Z,81.17
2022-11-22T18:23:23.731Z,81.17
2022-11-22T18:26:38.912Z,81.16
2022-11-22T18:29:42.562Z,81.19
2022-11-22T18:32:40.549Z,81.15
2022-11-22T18:35:39.368Z,81.21
2022-11-22T18:38:38.117Z,81.17
2022-11-22T18:41:36.880Z,81.16
2022-11-22T18:44:35.941Z,81.22
2022-11-22T18:47:34.531Z,81.24
2022-11-22T18:50:33.656Z,81.26
2022-11-22T18:53:31.734Z,81.29
2022-11-22T18:56:29.796Z,81.33
2022-11-22T18:59:28.595Z,81.25
2022-11-22T19:02:28.463Z,81.21
2022-11-22T19:05:27.304Z,81.10
2022-11-22T19:08:25.978Z,80.92
2022-11-22T19:11:26.727Z,80.91
2022-11-22T19:14:26.642Z,80.79
2022-11-22T19:17:25.417Z,80.71
2022-11-22T19:20:53.567Z,80.61
2022-11-22T19:23:53.835Z,80.53
2022-11-22T19:26:52.012Z,80.50
2022-11-22T19:29:51.036Z,80.50
2022-11-22T19:32:53.074Z,80.49
2022-11-22T19:35:55.038Z,80.41
2022-11-22T19:38:53.580Z,80.52
2022-11-22T19:41:55.137Z,80.43
2022-11-22T19:44:55.950Z,80.37
2022-11-22T19:47:54.407Z,80.32
2022-11-22T19:50:53.883Z,80.18
2022-11-22T19:53:54.442Z,80.06
2022-11-22T19:56:52.556Z,80.12
2022-11-22T19:59:55.812Z,80.24
2022-11-22T20:02:56.299Z,80.34
2022-11-22T20:05:55.893Z,80.42
2022-11-22T20:08:54.846Z,80.42
2022-11-22T20:11:55.350Z,80.38
2022-11-22T20:14:54.681Z,80.39
2022-11-22T20:17:53.467Z,80.45
2022-11-22T20:20:55.026Z,80.45
2022-11-22T20:23:53.204Z,80.59
2022-11-22T20:26:54.999Z,80.65
2022-11-22T20:29:53.998Z,80.76
2022-11-22T20:32:53.002Z,80.77
2022-11-22T20:35:52.932Z,80.86
2022-11-22T20:38:51.411Z,80.97
2022-11-22T20:42:11.744Z,81.02
2022-11-22T20:45:11.373Z,81.07
2022-11-22T20:48:10.438Z,81.22
2022-11-22T20:51:08.944Z,81.38
2022-11-22T20:54:07.471Z,81.39
2022-11-22T20:57:06.381Z,81.48
2022-11-22T21:00:06.260Z,81.69
2022-11-22T21:03:04.714Z,81.89
2022-11-22T21:06:04.022Z,82.01
2022-11-22T21:09:02.588Z,82.14
2022-11-22T21:12:01.295Z,82.42
2022-11-22T21:14:58.823Z,82.54
2022-11-22T21:18:23.726Z,82.72
2022-11-22T21:21:14.197Z,82.86
2022-11-22T21:24:13.251Z,83.01
2022-11-22T21:27:10.759Z,83.20
2022-11-22T21:30:08.310Z,83.28
2022-11-22T21:33:05.987Z,83.48
2022-11-22T21:36:03.738Z,83.55
2022-11-22T21:39:01.230Z,83.67
2022-11-22T21:41:58.680Z,83.56
2022-11-22T21:44:56.139Z,83.67
2022-11-22T21:47:53.572Z,83.82
2022-11-22T21:50:51.047Z,83.90
2022-11-22T21:53:48.505Z,84.06
2022-11-22T21:56:45.973Z,84.05
2022-11-22T21:59:43.440Z,84.02
2022-11-22T22:02:40.932Z,84.13
2022-11-22T22:05:38.412Z,84.11
2022-11-22T22:08:36.489Z,84.11
2022-11-22T22:11:33.972Z,84.19
2022-11-22T22:14:31.466Z,84.29
2022-11-22T22:17:28.912Z,84.19
2022-11-22T22:20:26.432Z,84.08
2022-11-22T22:23:24.414Z,84.17
2022-11-22T22:26:21.917Z,84.20
2022-11-22T22:29:19.350Z,84.24
2022-11-22T22:32:16.811Z,84.16
2022-11-22T22:35:14.251Z,84.08
2022-11-22T22:38:11.688Z,84.13
2022-11-22T22:41:09.138Z,84.17
2022-11-22T22:44:06.599Z,84.07
2022-11-22T22:47:04.049Z,84.01
2022-11-22T22:50:01.484Z,84.06
2022-11-22T22:52:58.927Z,84.09
2022-11-22T22:55:56.409Z,84.03
2022-11-22T22:58:53.888Z,84.12
2022-11-22T23:01:51.343Z,84.33
2022-11-22T23:04:48.808Z,84.42
2022-11-22T23:07:46.355Z,84.43
2022-11-22T23:10:44.487Z,84.36
2022-11-22T23:13:41.978Z,84.39
2022-11-22T23:16:39.456Z,84.42
2022-11-22T23:19:36.922Z,84.55
2022-11-22T23:22:34.388Z,84.57
2022-11-22T23:25:31.867Z,84.58
2022-11-22T23:28:29.344Z,84.68
2022-11-22T23:31:26.945Z,84.75
2022-11-22T23:34:24.388Z,84.66
2022-11-22T23:37:21.883Z,84.61
2022-11-22T23:40:19.351Z,84.68
2022-11-22T23:43:16.820Z,84.65
2022-11-22T23:46:16.334Z,84.56
2022-11-22T23:49:13.968Z,84.63
2022-11-22T23:52:12.508Z,84.80
2022-11-22T23:55:09.942Z,84.87
2022-11-22T23:58:07.401Z,84.92
